Mound, MN (55364)

6:50 AM CST en Febrero 10, 2016 (GMT -0600)
Grandview | | Change Station
CLOSE
Current Station
Estación meteorológica personal
Location: Mound, MN
Altura: 968 ft
Estaciones meteorológicas cercanas

Alt 968 ft 44.94 °N, 93.67 °W | Updated 40 seconds ago

Muy nublado
Muy nublado
1.5 ° F
Sensación térmica 1 ° F
N
0.0
Viento Variable Viento desde Oeste
Gusts 4.0 mph

Hoy
Alta -- | Baja -- ° F
--% Posibilidad de precipitaciones
Ayer
Alta -- | Baja -- ° F
Precip. -- pul
Presión 30.17 pul
Visibilidad 10.0 Millas
Nubes Despejado
Vientos helados 1 ° F
Punto de rocío -3 ° F
Humedad 80%
Precipitaciones 0.00 pul
Espesor de la nieve No disponible.
7:23 AM 5:35 PM
Creciente, 5% visible
METAR KFCM 101153Z 00000KT 10SM CLR M16/M20 A3011 RMK AO2 SLP215 T11561200 11139 21161 56004
Presión 30.17 pul
Visibilidad 10.0 Millas
Nubes Despejado
Vientos helados 1 ° F
Punto de rocío -3 ° F
Humedad 80%
Precipitaciones 0.00 pul
Espesor de la nieve No disponible.
7:23 AM 5:35 PM
Creciente, 5% visible
METAR KFCM 101153Z 00000KT 10SM CLR M16/M20 A3011 RMK AO2 SLP215 T11561200 11139 21161 56004

10-Day Weather Forecast

Almanac

Astronomía

Feb. 10, 2016 Salida Puesta
Hora real
Crepúsculo civil
Crepúsculo náutico
Crepúsculo astronómico
Luna
Horas de luz
Horas de luz
Tomorrow will be .
, % of the Moon is Illuminated

Extremos de hoy

Máximos del estado Bajos del estado

Community

WunderPhotos

Upload Photos

1,891,837 ¡fotos cargadas!

WunderBlog® & News

Nearby

Calidad del aire

  Calidad del aire Índice AQ Contaminante
Not available.

Grosos de nieve

Estación Profundido Altura

Actividad de terremotos

Ciudad Distance Mag. Tiempo y dato
Magnitud mínima muestra es 2,5.

Temperaturas de aguas costeras

Lugar Temperatura

Stations

Estaciones meteorológicas cercanas

Ubicación de la estación Temp. Vientos helados Punto de rocío Humedad Viento Precip. Alt Actualizado Tipo
                   

Watches & Warnings

There are currently no watches in effect.